KCRX/CRX METAR and TAF weather

Enter ICAO airport designator
Station Type Date Time Source
KCRX METAR 2019/06/18 16:55 UTC NOAA

KCRX 181655Z AUTO 00000KT 8SM -DZ FEW015 SCT025 BKN039 25/22 A2994 RMK AO2


Station Type Date Time Source
KCRX Decoded METAR 2019/06/18 16:55 UTC NOAA

Station name not available
Jun 18, 2019 - 12:55 PM EDT / 2019.06.18 1655 UTC
Wind: Calm:0
Visibility: 8 mile(s):0
Sky conditions: mostly cloudy
Weather: light drizzle
Temperature: 77 F (25 C)
Dew Point: 71 F (22 C)
Relative Humidity: 83%
Pressure (altimeter): 29.94 in. Hg (1013 hPa)
ob: KCRX 181655Z AUTO 00000KT 8SM -DZ FEW015 SCT025 BKN039 25/22 A2994 RMK AO2
cycle: 17

Station Type Date Time Source
KCRX TAF UTC NOAA

Error!

Example: see airport list